createdAt,value
2023-04-22T00:00:42.968Z,38.97
2023-04-22T00:03:29.301Z,39.22
2023-04-22T00:05:58.004Z,40.58
2023-04-22T00:08:27.670Z,33.33
2023-04-22T00:11:03.456Z,41.20
2023-04-22T00:13:33.160Z,36.58
2023-04-22T00:16:04.771Z,31.42
2023-04-22T00:18:37.797Z,33.45
2023-04-22T00:21:13.824Z,27.52
2023-04-22T00:23:50.586Z,32.40
2023-04-22T00:26:21.316Z,29.17
2023-04-22T00:28:51.144Z,36.60
2023-04-22T00:31:20.906Z,29.15
2023-04-22T00:34:00.760Z,32.35
2023-04-22T00:36:35.512Z,30.38
2023-04-22T00:39:06.958Z,29.73
2023-04-22T00:41:35.778Z,33.55
2023-04-22T00:44:11.221Z,30.27
2023-04-22T00:47:02.830Z,30.23
2023-04-22T00:49:39.229Z,29.58
2023-04-22T00:52:15.108Z,29.88
2023-04-22T00:54:44.709Z,35.92
2023-04-22T00:57:14.369Z,30.60
2023-04-22T00:59:44.415Z,35.20
2023-04-22T01:02:14.366Z,35.35
2023-04-22T01:04:44.832Z,34.38
2023-04-22T01:07:14.433Z,28.95
2023-04-22T01:09:43.529Z,37.97
2023-04-22T01:12:28.138Z,33.50
2023-04-22T01:14:58.338Z,37.83
2023-04-22T01:17:27.136Z,37.13
2023-04-22T01:20:11.502Z,33.40
2023-04-22T01:22:44.256Z,35.38
2023-04-22T01:25:16.098Z,30.38
2023-04-22T01:27:46.590Z,32.67
2023-04-22T01:30:19.221Z,35.30
2023-04-22T01:32:49.363Z,39.03
2023-04-22T01:35:37.265Z,38.72
2023-04-22T01:38:07.420Z,37.20
2023-04-22T01:40:37.588Z,39.58
2023-04-22T01:43:08.197Z,34.38
2023-04-22T01:45:42.901Z,36.10
2023-04-22T01:48:17.827Z,39.17
2023-04-22T01:50:47.472Z,39.78
2023-04-22T01:53:17.126Z,38.88
2023-04-22T01:55:46.993Z,41.67
2023-04-22T01:58:16.607Z,40.20
2023-04-22T02:00:45.303Z,38.20
2023-04-22T02:03:16.446Z,34.78
2023-04-22T02:05:44.966Z,35.22
2023-04-22T02:08:15.441Z,37.05
2023-04-22T02:10:46.577Z,39.00
2023-04-22T02:13:17.367Z,34.88
2023-04-22T02:15:47.260Z,39.20
2023-04-22T02:18:18.152Z,39.85
2023-04-22T02:20:48.880Z,34.78
2023-04-22T02:23:19.616Z,41.47
2023-04-22T02:25:52.185Z,37.72
2023-04-22T02:28:23.505Z,44.05
2023-04-22T02:30:53.132Z,37.83
2023-04-22T02:33:28.979Z,35.92
2023-04-22T02:36:00.703Z,38.03
2023-04-22T02:38:39.896Z,35.47
2023-04-22T02:41:09.848Z,38.28
2023-04-22T02:43:42.561Z,38.65
2023-04-22T02:46:13.725Z,37.35
2023-04-22T02:48:42.292Z,35.88
2023-04-22T02:51:18.979Z,38.95
2023-04-22T02:53:51.095Z,39.67
2023-04-22T02:56:21.589Z,38.80
2023-04-22T02:58:56.010Z,34.33
2023-04-22T03:01:25.849Z,38.20
2023-04-22T03:03:54.601Z,39.30
2023-04-22T03:06:25.430Z,35.85
2023-04-22T03:08:57.997Z,37.42
2023-04-22T03:11:35.102Z,36.38
2023-04-22T03:14:06.306Z,38.22
2023-04-22T03:16:35.379Z,35.13
2023-04-22T03:19:05.128Z,32.58
2023-04-22T03:21:34.771Z,37.35
2023-04-22T03:24:04.392Z,33.67
2023-04-22T03:26:35.466Z,37.35
2023-04-22T03:29:04.101Z,31.55
2023-04-22T03:32:05.661Z,31.55
2023-04-22T03:34:43.543Z,29.65
2023-04-22T03:37:13.197Z,30.83
2023-04-22T03:39:48.635Z,29.35
2023-04-22T03:42:19.820Z,30.20
2023-04-22T03:44:49.542Z,25.88
2023-04-22T03:47:27.232Z,28.90
2023-04-22T03:49:56.720Z,29.55
2023-04-22T03:52:28.166Z,29.00
2023-04-22T03:54:58.071Z,29.73
2023-04-22T03:57:27.977Z,31.85
2023-04-22T03:59:57.584Z,34.53
2023-04-22T04:02:28.108Z,28.05
2023-04-22T04:04:57.831Z,34.28
2023-04-22T04:07:26.841Z,31.00
2023-04-22T04:10:01.665Z,38.50
2023-04-22T04:12:31.678Z,33.63
2023-04-22T04:15:01.037Z,31.75
2023-04-22T04:17:35.642Z,32.13
2023-04-22T04:20:04.477Z,43.25
2023-04-22T04:22:35.712Z,33.10
2023-04-22T04:25:08.862Z,34.15
2023-04-22T04:27:42.340Z,32.45
2023-04-22T04:30:18.139Z,34.58
2023-04-22T04:32:46.615Z,36.85
2023-04-22T04:35:15.718Z,39.35
2023-04-22T04:37:48.278Z,40.22
2023-04-22T04:40:19.226Z,43.63
2023-04-22T04:43:02.808Z,33.35
2023-04-22T04:45:48.365Z,42.65
2023-04-22T04:48:17.752Z,39.78
2023-04-22T04:50:46.261Z,41.92
2023-04-22T04:53:14.708Z,40.67
2023-04-22T04:55:43.451Z,37.03
2023-04-22T04:58:13.480Z,39.70
2023-04-22T05:00:56.285Z,38.22
2023-04-22T05:03:31.962Z,36.72
2023-04-22T05:06:01.663Z,40.72
2023-04-22T05:08:31.374Z,42.60
2023-04-22T05:11:05.829Z,34.05
2023-04-22T05:13:38.321Z,43.72
2023-04-22T05:16:07.368Z,35.17
2023-04-22T05:18:36.106Z,35.92
2023-04-22T05:21:20.783Z,33.80
2023-04-22T05:23:57.355Z,37.08
2023-04-22T05:26:36.153Z,39.28
2023-04-22T05:29:07.110Z,34.30
2023-04-22T05:31:43.863Z,35.17
2023-04-22T05:34:37.241Z,32.50
2023-04-22T05:37:06.998Z,26.45
2023-04-22T05:39:43.920Z,34.55
2023-04-22T05:42:12.606Z,35.00
2023-04-22T05:44:51.691Z,35.88
2023-04-22T05:47:26.175Z,28.48
2023-04-22T05:50:02.106Z,34.17
2023-04-22T05:52:37.587Z,29.02
2023-04-22T05:55:08.711Z,27.60
2023-04-22T05:57:39.791Z,32.35
2023-04-22T06:00:15.665Z,32.90
2023-04-22T06:02:46.513Z,37.40
2023-04-22T06:05:22.503Z,33.75
2023-04-22T06:08:05.607Z,36.65
2023-04-22T06:10:41.417Z,34.92
2023-04-22T06:13:17.623Z,29.25
2023-04-22T06:15:47.680Z,34.25
2023-04-22T06:18:18.260Z,30.02
2023-04-22T06:20:48.742Z,32.03
2023-04-22T06:23:23.320Z,25.17
2023-04-22T06:25:52.207Z,30.40
2023-04-22T06:28:21.883Z,31.38
2023-04-22T06:30:57.898Z,31.55
2023-04-22T06:33:45.700Z,25.35
2023-04-22T06:36:18.325Z,26.83
2023-04-22T06:38:46.687Z,26.73
2023-04-22T06:41:15.549Z,27.73
2023-04-22T06:43:44.089Z,24.90
2023-04-22T06:46:15.464Z,27.05
2023-04-22T06:48:50.928Z,27.38
2023-04-22T06:51:26.660Z,29.70
2023-04-22T06:53:55.500Z,28.15
2023-04-22T06:56:25.017Z,29.20
2023-04-22T06:58:53.537Z,23.58
2023-04-22T07:01:23.747Z,27.58
2023-04-22T07:03:52.291Z,25.45
2023-04-22T07:06:23.966Z,25.58
2023-04-22T07:08:54.602Z,24.08
2023-04-22T07:11:24.275Z,22.15
2023-04-22T07:13:53.929Z,22.42
2023-04-22T07:16:25.287Z,22.40
2023-04-22T07:18:55.186Z,20.63
2023-04-22T07:21:26.650Z,18.90
2023-04-22T07:23:55.157Z,19.50
2023-04-22T07:26:26.000Z,18.98
2023-04-22T07:28:54.697Z,20.65
2023-04-22T07:31:31.777Z,14.13
2023-04-22T07:34:04.440Z,16.55
2023-04-22T07:36:34.073Z,16.05
2023-04-22T07:39:11.668Z,13.60
2023-04-22T07:41:47.992Z,14.25
2023-04-22T07:44:21.967Z,10.85
2023-04-22T07:46:52.550Z,11.32
2023-04-22T07:49:28.190Z,8.57
2023-04-22T07:51:56.772Z,11.45
2023-04-22T07:54:25.204Z,9.75
2023-04-22T07:56:53.514Z,10.15
2023-04-22T07:59:23.032Z,10.52
2023-04-22T08:01:53.675Z,7.72
2023-04-22T08:04:35.852Z,10.18
2023-04-22T08:07:17.189Z,11.57
2023-04-22T08:09:54.040Z,9.13
2023-04-22T08:12:22.620Z,10.07
2023-04-22T08:14:52.768Z,13.70
2023-04-22T08:17:23.771Z,11.48
2023-04-22T08:19:52.415Z,12.75
2023-04-22T08:22:20.907Z,14.82
2023-04-22T08:24:56.392Z,18.13
2023-04-22T08:27:32.910Z,20.85
2023-04-22T08:30:02.650Z,15.50
2023-04-22T08:32:32.863Z,19.00
2023-04-22T08:35:04.943Z,20.63
2023-04-22T08:37:36.270Z,13.38
2023-04-22T08:40:05.528Z,19.58
2023-04-22T08:42:36.714Z,15.65
2023-04-22T08:45:11.362Z,13.35
2023-04-22T08:47:44.273Z,17.17
2023-04-22T08:50:13.862Z,15.15
2023-04-22T08:52:44.022Z,15.27
2023-04-22T08:55:12.598Z,12.73
2023-04-22T08:57:42.414Z,14.77
2023-04-22T09:00:19.130Z,17.27
2023-04-22T09:03:02.666Z,17.20
2023-04-22T09:05:35.521Z,15.82
2023-04-22T09:08:05.306Z,11.40
2023-04-22T09:10:34.319Z,12.15
2023-04-22T09:13:04.820Z,12.48
2023-04-22T09:15:33.373Z,13.95
2023-04-22T09:18:04.453Z,12.55
2023-04-22T09:20:33.336Z,18.67
2023-04-22T09:23:05.520Z,15.90
2023-04-22T09:25:36.603Z,13.63
2023-04-22T09:28:05.521Z,13.43
2023-04-22T09:30:36.238Z,12.82
2023-04-22T09:33:07.738Z,9.82
2023-04-22T09:35:38.433Z,16.38
2023-04-22T09:38:09.487Z,9.55
2023-04-22T09:40:39.862Z,15.07
2023-04-22T09:43:10.841Z,13.15
2023-04-22T09:45:41.632Z,13.70
2023-04-22T09:48:14.401Z,11.73
2023-04-22T09:50:46.614Z,12.05
2023-04-22T09:53:17.778Z,12.18
2023-04-22T09:55:50.751Z,14.45
2023-04-22T09:58:21.235Z,12.02
2023-04-22T10:00:53.627Z,12.05
2023-04-22T10:03:25.253Z,8.00
2023-04-22T10:05:54.139Z,12.50
2023-04-22T10:08:22.894Z,9.57
2023-04-22T10:10:51.623Z,8.13
2023-04-22T10:13:19.969Z,10.57
2023-04-22T10:15:53.586Z,8.63
2023-04-22T10:18:27.457Z,6.82
2023-04-22T10:20:59.135Z,8.10
2023-04-22T10:23:28.307Z,8.63
2023-04-22T10:25:57.989Z,6.95
2023-04-22T10:28:37.529Z,6.55
2023-04-22T10:31:08.580Z,6.18
2023-04-22T10:33:42.040Z,8.35
2023-04-22T10:36:17.003Z,11.10
2023-04-22T10:39:19.385Z,8.02
2023-04-22T10:41:54.330Z,8.07
2023-04-22T10:44:23.835Z,7.75
2023-04-22T10:47:00.200Z,10.40
2023-04-22T10:49:32.979Z,8.80
2023-04-22T10:52:04.444Z,6.88
2023-04-22T10:55:03.358Z,7.18
2023-04-22T10:58:01.216Z,7.88
2023-04-22T11:00:53.037Z,9.75
2023-04-22T11:03:29.622Z,10.85
2023-04-22T11:06:22.599Z,9.85
2023-04-22T11:09:10.104Z,12.15
2023-04-22T11:11:39.819Z,11.55
2023-04-22T11:14:10.975Z,15.00
2023-04-22T11:16:48.611Z,14.70
2023-04-22T11:19:18.362Z,13.48
2023-04-22T11:21:50.102Z,15.88
2023-04-22T11:24:22.724Z,14.63
2023-04-22T11:26:52.350Z,13.77
2023-04-22T11:29:22.204Z,14.07
2023-04-22T11:31:52.984Z,12.85
2023-04-22T11:34:22.616Z,11.93
2023-04-22T11:36:53.211Z,11.80
2023-04-22T11:39:21.700Z,12.70
2023-04-22T11:41:57.244Z,12.98
2023-04-22T11:44:26.806Z,14.35
2023-04-22T11:46:58.698Z,15.52
2023-04-22T11:49:28.147Z,17.38
2023-04-22T11:51:58.983Z,16.15
2023-04-22T11:54:34.894Z,20.48
2023-04-22T11:57:05.419Z,18.75
2023-04-22T11:59:33.819Z,17.00
2023-04-22T12:02:06.326Z,16.10
2023-04-22T12:04:38.782Z,20.02
2023-04-22T12:07:09.150Z,20.38
2023-04-22T12:09:45.771Z,18.27
2023-04-22T12:12:20.277Z,15.90
2023-04-22T12:14:49.918Z,17.60
2023-04-22T12:17:23.847Z,21.02
2023-04-22T12:19:56.031Z,20.75
2023-04-22T12:22:33.868Z,21.02
2023-04-22T12:25:03.534Z,23.08
2023-04-22T12:27:32.194Z,20.05
2023-04-22T12:30:01.906Z,18.48
2023-04-22T12:32:30.592Z,13.30
2023-04-22T12:35:00.267Z,12.63
2023-04-22T12:37:39.376Z,15.10
2023-04-22T12:40:14.332Z,9.80
2023-04-22T12:42:59.839Z,11.32
2023-04-22T12:45:31.106Z,9.85
2023-04-22T12:48:05.758Z,11.68
2023-04-22T12:50:41.056Z,12.25
2023-04-22T12:53:13.089Z,11.38
2023-04-22T12:55:44.541Z,11.05
2023-04-22T12:58:15.565Z,12.90
2023-04-22T13:00:44.081Z,14.90
2023-04-22T13:03:23.116Z,14.13
2023-04-22T13:06:03.781Z,15.85
2023-04-22T13:08:34.990Z,14.48
2023-04-22T13:11:05.358Z,15.57
2023-04-22T13:14:11.114Z,18.23
2023-04-22T13:16:59.463Z,14.93
2023-04-22T13:19:35.899Z,11.25
2023-04-22T13:22:16.279Z,8.60
2023-04-22T13:24:46.248Z,10.48
2023-04-22T13:27:16.053Z,9.38
2023-04-22T13:29:45.026Z,11.43
2023-04-22T13:32:15.017Z,10.55
2023-04-22T13:35:03.411Z,15.00
2023-04-22T13:37:32.923Z,11.45
2023-04-22T13:40:11.093Z,10.68
2023-04-22T13:42:52.721Z,12.90
2023-04-22T13:45:23.993Z,11.38
2023-04-22T13:48:02.566Z,11.32
2023-04-22T13:50:36.397Z,12.45
2023-04-22T13:53:16.631Z,10.32
2023-04-22T13:55:48.949Z,12.60
2023-04-22T13:58:19.422Z,11.27
2023-04-22T14:00:56.350Z,15.40
2023-04-22T14:03:27.007Z,14.40
2023-04-22T14:05:56.988Z,12.45
2023-04-22T14:08:26.788Z,12.80
2023-04-22T14:10:57.384Z,12.70
2023-04-22T14:13:40.859Z,12.00
2023-04-22T14:16:22.470Z,11.65
2023-04-22T14:19:02.967Z,11.70
2023-04-22T14:21:33.813Z,12.18
2023-04-22T14:24:02.511Z,13.95
2023-04-22T14:26:41.703Z,15.52
2023-04-22T14:29:12.254Z,15.20
2023-04-22T14:31:42.388Z,15.38
2023-04-22T14:34:12.227Z,15.27
2023-04-22T14:36:47.864Z,15.10
2023-04-22T14:39:53.814Z,16.45
2023-04-22T14:42:29.380Z,15.68
2023-04-22T14:45:20.149Z,15.50
2023-04-22T14:47:55.054Z,16.42
2023-04-22T14:50:23.689Z,17.10
2023-04-22T14:52:52.399Z,14.95
2023-04-22T14:55:26.172Z,15.60
2023-04-22T14:57:58.666Z,14.52
2023-04-22T15:00:40.267Z,16.85
2023-04-22T15:03:09.305Z,16.17
2023-04-22T15:05:38.866Z,17.55
2023-04-22T15:08:13.521Z,21.88
2023-04-22T15:10:42.120Z,18.42
2023-04-22T15:13:23.977Z,14.75
2023-04-22T15:15:55.142Z,15.73
2023-04-22T15:18:23.935Z,17.25
2023-04-22T15:20:55.018Z,15.60
2023-04-22T15:23:26.780Z,15.43
2023-04-22T15:26:05.535Z,18.48
2023-04-22T15:28:36.023Z,17.50
2023-04-22T15:31:04.543Z,17.88
2023-04-22T15:33:33.502Z,17.60
2023-04-22T15:36:07.143Z,17.10
2023-04-22T15:38:40.272Z,17.08
2023-04-22T15:41:09.135Z,17.17
2023-04-22T15:43:57.091Z,15.07
2023-04-22T15:46:29.282Z,19.17
2023-04-22T15:48:59.047Z,20.45
2023-04-22T15:51:27.881Z,20.00
2023-04-22T15:53:59.126Z,21.23
2023-04-22T15:56:35.225Z,19.30
2023-04-22T15:59:05.206Z,17.73
2023-04-22T16:01:34.292Z,17.77
2023-04-22T16:04:03.289Z,18.75
2023-04-22T16:06:32.328Z,21.58
2023-04-22T16:09:00.936Z,18.38
2023-04-22T16:11:30.961Z,16.75
2023-04-22T16:13:59.499Z,22.15
2023-04-22T16:16:29.554Z,18.92
2023-04-22T16:18:58.346Z,19.55
2023-04-22T16:21:28.872Z,19.42
2023-04-22T16:23:59.130Z,20.05
2023-04-22T16:26:27.658Z,18.00
2023-04-22T16:28:56.529Z,17.33
2023-04-22T16:31:25.299Z,20.23
2023-04-22T16:33:58.860Z,19.38
2023-04-22T16:36:29.240Z,19.33
2023-04-22T16:38:57.930Z,23.40
2023-04-22T16:41:32.748Z,20.20
2023-04-22T16:44:01.130Z,20.83
2023-04-22T16:46:30.813Z,19.20
2023-04-22T16:49:01.068Z,24.00
2023-04-22T16:51:29.790Z,19.65
2023-04-22T16:54:00.388Z,17.15
2023-04-22T16:56:30.098Z,14.77
2023-04-22T16:59:00.416Z,15.90
2023-04-22T17:01:31.418Z,17.38
2023-04-22T17:04:01.810Z,16.33
2023-04-22T17:06:31.366Z,19.90
2023-04-22T17:09:01.209Z,17.58
2023-04-22T17:11:32.503Z,19.02
2023-04-22T17:14:00.971Z,15.90
2023-04-22T17:16:31.380Z,17.33
2023-04-22T17:19:02.519Z,16.10
2023-04-22T17:21:34.497Z,15.48
2023-04-22T17:24:05.189Z,18.33
2023-04-22T17:26:35.374Z,22.83
2023-04-22T17:29:05.590Z,20.08
2023-04-22T17:31:34.970Z,25.02
2023-04-22T17:34:06.093Z,18.38
2023-04-22T17:36:34.538Z,16.88
2023-04-22T17:39:03.226Z,17.85
2023-04-22T17:41:31.963Z,20.58
2023-04-22T17:44:01.432Z,20.17
2023-04-22T17:46:31.254Z,20.90
2023-04-22T17:49:00.549Z,18.08
2023-04-22T17:51:31.798Z,20.38
2023-04-22T17:54:01.464Z,22.17
2023-04-22T17:56:29.910Z,23.50
2023-04-22T17:59:01.442Z,26.00
2023-04-22T18:01:30.718Z,20.25
2023-04-22T18:04:00.582Z,21.80
2023-04-22T18:06:32.639Z,17.52
2023-04-22T18:09:01.194Z,13.23
2023-04-22T18:11:30.207Z,14.40
2023-04-22T18:13:58.631Z,10.25
2023-04-22T18:16:27.000Z,7.65
2023-04-22T18:18:55.301Z,8.48
2023-04-22T18:21:23.876Z,9.68
2023-04-22T18:23:54.088Z,10.52
2023-04-22T18:26:23.673Z,8.48
2023-04-22T18:28:52.244Z,14.15
2023-04-22T18:31:22.386Z,8.35
2023-04-22T18:33:57.205Z,10.85
2023-04-22T18:36:25.868Z,9.55
2023-04-22T18:38:56.152Z,16.77
2023-04-22T18:41:25.470Z,15.65
2023-04-22T18:43:55.087Z,23.70
2023-04-22T18:46:25.934Z,22.52
2023-04-22T18:48:54.341Z,15.27
2023-04-22T18:51:25.917Z,14.57
2023-04-22T18:53:57.013Z,16.67
2023-04-22T18:56:25.841Z,18.10
2023-04-22T18:58:55.450Z,18.48
2023-04-22T19:01:24.450Z,20.25
2023-04-22T19:03:54.328Z,21.38
2023-04-22T19:06:22.941Z,24.02
2023-04-22T19:08:53.183Z,25.27
2023-04-22T19:11:25.740Z,25.27
2023-04-22T19:13:54.301Z,29.85
2023-04-22T19:16:28.155Z,29.73
2023-04-22T19:19:01.676Z,29.60
2023-04-22T19:21:37.178Z,30.10
2023-04-22T19:24:06.081Z,29.95
2023-04-22T19:26:42.940Z,34.55
2023-04-22T19:29:16.834Z,36.88
2023-04-22T19:31:47.927Z,36.25
2023-04-22T19:34:16.559Z,37.85
2023-04-22T19:36:46.054Z,47.45
2023-04-22T19:39:15.835Z,42.80
2023-04-22T19:41:51.269Z,47.35
2023-04-22T19:44:20.280Z,41.45
2023-04-22T19:46:55.147Z,44.75
2023-04-22T19:49:26.081Z,40.90
2023-04-22T19:52:04.824Z,43.97
2023-04-22T19:54:34.800Z,46.05
2023-04-22T19:57:06.776Z,45.05
2023-04-22T19:59:36.079Z,43.85
2023-04-22T20:02:05.073Z,43.80
2023-04-22T20:04:34.173Z,47.53
2023-04-22T20:07:05.719Z,48.78
2023-04-22T20:09:38.403Z,48.75
2023-04-22T20:12:11.320Z,43.30
2023-04-22T20:14:41.193Z,40.92
2023-04-22T20:17:10.256Z,40.90
2023-04-22T20:19:39.608Z,35.28
2023-04-22T20:22:13.072Z,37.72
2023-04-22T20:24:44.104Z,38.55
2023-04-22T20:27:15.818Z,35.78
2023-04-22T20:29:45.537Z,33.28
2023-04-22T20:32:16.873Z,32.92
2023-04-22T20:34:47.058Z,32.03
2023-04-22T20:37:20.220Z,35.35
2023-04-22T20:39:50.408Z,33.00
2023-04-22T20:42:23.359Z,31.90
2023-04-22T20:44:52.364Z,40.10
2023-04-22T20:47:23.012Z,37.00
2023-04-22T20:49:59.028Z,39.67
2023-04-22T20:52:29.320Z,40.05
2023-04-22T20:54:58.890Z,44.85
2023-04-22T20:57:29.858Z,45.70
2023-04-22T20:59:58.371Z,45.85
2023-04-22T21:02:28.399Z,50.85
2023-04-22T21:04:58.950Z,48.97
2023-04-22T21:07:32.011Z,54.75
2023-04-22T21:10:01.860Z,41.65
2023-04-22T21:12:36.730Z,40.05
2023-04-22T21:15:06.693Z,37.97
2023-04-22T21:17:40.152Z,33.03
2023-04-22T21:20:12.412Z,39.50
2023-04-22T21:22:44.418Z,38.20
2023-04-22T21:25:21.748Z,41.65
2023-04-22T21:27:54.496Z,46.22
2023-04-22T21:30:23.922Z,42.45
2023-04-22T21:32:52.767Z,41.10
2023-04-22T21:35:24.075Z,38.92
2023-04-22T21:37:53.894Z,31.50
2023-04-22T21:40:22.614Z,34.03
2023-04-22T21:42:52.629Z,30.33
2023-04-22T21:45:22.254Z,31.05
2023-04-22T21:47:51.177Z,23.33
2023-04-22T21:50:23.290Z,19.75
2023-04-22T21:52:53.702Z,19.75
2023-04-22T21:55:37.623Z,17.90
2023-04-22T21:58:07.780Z,18.33
2023-04-22T22:00:42.402Z,16.88
2023-04-22T22:03:13.016Z,20.52
2023-04-22T22:05:42.031Z,17.83
2023-04-22T22:08:11.332Z,18.63
2023-04-22T22:10:39.929Z,20.88
2023-04-22T22:13:09.921Z,22.92
2023-04-22T22:15:38.758Z,21.67
2023-04-22T22:18:08.080Z,22.88
2023-04-22T22:20:38.800Z,22.70
2023-04-22T22:23:07.890Z,23.08
2023-04-22T22:25:38.579Z,22.23
2023-04-22T22:28:11.189Z,25.60
2023-04-22T22:30:39.818Z,25.88
2023-04-22T22:33:08.733Z,31.38
2023-04-22T22:35:37.312Z,25.52
2023-04-22T22:38:10.222Z,28.92
2023-04-22T22:40:38.718Z,27.35
2023-04-22T22:43:07.677Z,54.72
2023-04-22T22:45:38.935Z,28.92
2023-04-22T22:48:07.877Z,22.90
2023-04-22T22:50:36.598Z,35.13
2023-04-22T22:53:04.943Z,27.33
2023-04-22T22:55:34.525Z,30.23
2023-04-22T22:58:03.084Z,32.00
2023-04-22T23:00:31.718Z,40.28
2023-04-22T23:03:02.355Z,32.65
2023-04-22T23:05:30.739Z,41.35
2023-04-22T23:07:59.268Z,51.60
2023-04-22T23:10:27.887Z,46.63
2023-04-22T23:12:56.607Z,45.92
2023-04-22T23:15:25.173Z,39.38
2023-04-22T23:17:54.679Z,44.35
2023-04-22T23:20:25.857Z,48.15
2023-04-22T23:22:57.365Z,42.42
2023-04-22T23:25:26.874Z,38.90
2023-04-22T23:27:57.572Z,43.20
2023-04-22T23:30:26.603Z,46.90
2023-04-22T23:32:59.721Z,41.75
2023-04-22T23:35:31.320Z,43.55
2023-04-22T23:38:02.149Z,44.40
2023-04-22T23:40:32.095Z,41.03
2023-04-22T23:43:00.931Z,41.35
2023-04-22T23:45:38.031Z,43.35
2023-04-22T23:48:09.078Z,46.53
2023-04-22T23:50:40.846Z,45.42
2023-04-22T23:53:10.462Z,49.38
2023-04-22T23:55:40.133Z,45.28
2023-04-22T23:58:09.162Z,44.80
